Aviation Digital Data Service (ADDS)

Output produced by TAFs form (1100 UTC 01 November 2014)
found at http://aviationweather.gov/adds/tafs/
 
KHOB 010524Z 0106/0206 11009KT P6SM FEW250 
     FM011300 13009KT P6SM SCT050 OVC200 
     FM011800 15011G18KT P6SM SCT050 BKN150